AirNav   Everest Fuels
 
 1433 users online  

KMRT Union County Airport
Marysville, Ohio, USA

GOING TO MARYSVILLE?


FAA INFORMATION EFFECTIVE 10 SEPTEMBER 2020

Location

FAA Identifier: MRT
Lat/Long: 40-13-28.1990N 083-21-05.8790W
40-13.469983N 083-21.097983W
40.2244997,-83.3516331
(estimated)
Elevation: 1020.7 ft. / 311.1 m (surveyed)
Variation: 05W (1985)
From city: 1 mile SE of MARYSVILLE, OH
Time zone: UTC -4 (UTC -5 during Standard Time)
Zip code: 43040

Airport Operations

Airport use: Open to the public
Activation date: 07/1967
Control tower: no
ARTCC: INDIANAPOLIS CENTER
FSS: DAYTON FLIGHT SERVICE STATION
NOTAMs facility: DAY (NOTAM-D service available)
Attendance: NOV-APRIL 0800-1800, MAY-OCT 0800-1900
Wind indicator: lighted
Segmented circle: no
Lights: ACTVT REIL RWY 09 & 27; PAPI RWY 09 & 27; MIRL RWY 09/27 - CTAF.
Beacon: white-green (lighted land airport)
Operates sunset to sunrise.
Landing fee: no, RAMP FEE FOR COML ACFT.

Airport Communications

CTAF/UNICOM: 122.8
WX AWOS-3: 119.275 (937-644-2967)
COLUMBUS APPROACH: 125.95
COLUMBUS DEPARTURE: 125.95
IC: 125.95
WX AWOS-3 at DLZ (11 nm E): 119.025 (740-203-1878)
WX ASOS at OSU (15 nm SE): 121.35 (614-451-2465)
WX AWOS-3PT at UYF (18 nm S): 120.85 (740-852-2844)
WX AWOS-3 at I74 (19 nm W): 118.325 (937-484-5863)

Nearby radio navigation aids

VOR radial/distance  VOR name  Freq  Var
BUDr214/(26.9)BUCKEYE VOR109.8005W
RODr102/31.9ROSEWOOD VORTAC117.5005W
APEr283/35.3APPLETON VORTAC116.7006W

 
NDB name  Hdg/Dist  Freq  Var  ID
FULER327/11.551505WOS --- ...
CLARK COUNTY047/28.834104WCCJ -.-. -.-. .---
COURT HOUSE009/37.541406WCSS -.-. ... ...

Airport Services

Fuel available: 100LL JET-A1+
Parking: hangars and tiedowns
Airframe service: MAJOR
Powerplant service: MAJOR
Bottled oxygen: NONE
Bulk oxygen: NONE

Runway Information

Runway 9/27

Dimensions: 4218 x 75 ft. / 1286 x 23 m
Surface: asphalt, in good condition
Weight bearing capacity: 
Single wheel: 17.0
Runway edge lights: medium intensity
RUNWAY 9  RUNWAY 27
Latitude: 40-13.438457N40-13.523258N
Longitude: 083-21.546040W083-20.646537W
Elevation: 1020.6 ft.996.8 ft.
Traffic pattern: leftleft
AEROBATIC BOX SOUTH OF RY 09/27 - CHECK NOTAMS - RIGHT TFC RY 27 WHEN AEROBATIC BOX ACTIVE.
Runway heading: 088 magnetic, 083 true268 magnetic, 263 true
Displaced threshold: no123 ft.
Markings: nonprecision, in good conditionnonprecision, in good condition
Visual slope indicator: 4-light PAPI on left (3.00 degrees glide path)4-light PAPI on left (3.00 degrees glide path)
Runway end identifier lights: yesyes
Touchdown point: yes, no lightsyes, no lights
Obstructions: none20 ft. rr, 425 ft. from runway, 260 ft. right of centerline, 11:1 slope to clear
RWY 27 APCH RATIO 27:1 TO DSPLCD THLD DUE TO +20 FT RR, 425 FT FM RWY 27, 260 FT R.

Runway 8/26

Dimensions: 2702 x 81 ft. / 824 x 25 m
Surface: turf, in fair condition
RUNWAY 8  RUNWAY 26
Latitude: 40-13.425808N40-13.480155N
Longitude: 083-21.388715W083-20.812545W
Elevation: 1015.2 ft.993.9 ft.
Traffic pattern: leftleft
Runway heading: 088 magnetic, 083 true268 magnetic, 263 true
Touchdown point: yes, no lightsyes, no lights

Airport Ownership and Management from official FAA records

Ownership: Publicly-owned
Owner: UNION COUNTY ARPT AUTH
COUNTY COURTHOUSE, 215 W 5TH ST
MARYSVILLE, OH 43040
Phone 937-642-2055
Manager: DAVID HOLDEN
760 CLYMER RD
MARYSVILLE, OH 43040-9502
Phone 937-644-2055
ADNL INFO WWW.SKYVISTAAVIATION.COM / EMAIL SKYVISTAAVIATION@GMAIL.COM / AFTR HRS & EMERG CTC 740-604-1676.

Airport Operational Statistics

Aircraft based on the field: 50
Single engine airplanes: 49
Gliders airplanes: 1
    
Aircraft operations: avg 87/day *
59% local general aviation
29% transient general aviation
10% military
2% air taxi
* for 12-month period ending 26 May 2017

Additional Remarks

DEER BIRDS & OTHER WILDLIFE ON & INVOF ARPT.
24HR CREDIT CARD SELF SVC FUEL.
FOR CD CTC COLUMBUS APCH AT 614-338-8537.

Instrument Procedures

NOTE: All procedures below are presented as PDF files. If you need a reader for these files, you should download the free Adobe Reader.

NOT FOR NAVIGATION. Please procure official charts for flight.
FAA instrument procedures published for use from 10 September 2020 at 0901Z to 08 October 2020 at 0900z.

 
IAPs - Instrument Approach Procedures
RNAV (GPS) RWY 09   download (230KB)
RNAV (GPS) RWY 27   download (224KB)
NOTE: Special Alternate Minimums apply   download (53KB)
NOTE: Special Take-Off Minimums/Departure Procedures apply   download (164KB)

Other nearby airports with instrument procedures:

KDLZ - Delaware Municipal Airport - Jim Moore Field (11 nm E)
KOSU - Ohio State University Airport (15 nm SE)
KUYF - Madison County Airport (18 nm S)
I74 - Grimes Field Airport (19 nm W)
KTZR - Bolton Field Airport (22 nm SE)
 
Loc | Ops | Rwys | IFR | FBO | Links
Com | Nav | Svcs | Stats | Notes
Area around KMRT (Union County Airport)
 
Road maps at: MapQuest Bing Google
 
Aerial photo
WARNING: Photo may not be current or correct
Aerial photo of KMRT (Union County Airport)
Taken late December 2006

Do you have a better or more recent aerial photo of Union County Airport that you would like to share? If so, please send us your photo.

 
Sectional chart

 
Airport distance calculator
Flying to Union County Airport? Find the distance to fly.

From to KMRT

Sunrise and sunset
Times for 25-Sep-2020
 Local
(UTC-4)
 Zulu
(UTC)
Morning civil twilight06:5910:59
Sunrise07:2611:26
Sunset19:2423:24
Evening civil twilight19:5123:51

Current date and time
Zulu (UTC)  25-Sep-2020 20:49:39
Local (UTC-4)  25-Sep-2020 16:49:39
 
METAR
KMRT 252019Z AUTO 18005KT 10SM SCT055 26/11 A2998 RMK AO1
KDLZ 
11nm E 
252035Z AUTO 00000KT 10SM SCT049 26/13 A2998 RMK AO2
KOSU 
15nm SE 
251953Z 06006KT 10SM SCT050 27/14 A2997 RMK AO2 SLP145 T02670139
KUYF 
18nm S 
252035Z AUTO 12004KT 10SM CLR 26/09 A2997 RMK AO2
KI74 
19nm W 
252035Z AUTO 09004KT 10SM CLR 26/12 A2997 RMK AO2
TAF
KCMH 
25nm SE 
251733Z 2518/2618 13007KT P6SM FEW050 FM260000 15004KT P6SM FEW060 FM261400 20004KT P6SM SCT025 FM261600 20007KT P6SM SCT035
KLCK 
32nm SE 
251733Z 2518/2618 13007KT P6SM FEW050 FM260000 15004KT P6SM FEW060 FM260900 15003KT 4SM BR FEW060 FM261400 20004KT P6SM SCT025 FM261600 20007KT P6SM SCT035
NOTAMs
Click for the latest NOTAMs
NOTAMs are issued by the DoD/FAA and will open in a separate window not controlled by AirNav.

 

 
 

FBO, Fuel Providers, and Aircraft Ground Support

  
 Business Name 
 
 Contact 
 
 Services / Description 
 
Fuel Prices
 
Comments
  
SkyVista Aviation LLC 937-644-2055
[web site]
[email]
Airport management, Aviation fuel, Aircraft ground handling, Aircraft parking (ramp or tiedown), Hangars, Hangar leasing / sales, Passenger terminal and lounge, ...

More info about SkyVista Aviation LLC
Phillips 66
100LL Jet A
AS $5.10 $4.05 
 Updated 18-Sep-2020
 
   2 read write
AS=Assisted/Self Service
Update Fuel Prices
 

Would you like to see your business listed on this page?

 If your business provides an interesting product or service to pilots, flight crews, aircraft, or users of the Union County Airport, you should consider listing it here.  To start the listing process, click on the button below
 
Add a business
 

Other Pages about Union County Airport

Update a link
 
Copyright © AirNav, LLC. All rights reserved. Privacy Policy  Contact